sensor_id;sensor_type;location;lat;lon;timestamp;temperature;humidity
1812;DHT22;904;47.814;11.134;2023-06-24T00:00:14;19.50;60.20
1812;DHT22;904;47.814;11.134;2023-06-24T00:02:43;19.40;61.10
1812;DHT22;904;47.814;11.134;2023-06-24T00:05:12;19.40;61.60
1812;DHT22;904;47.814;11.134;2023-06-24T00:07:39;19.40;62.00
1812;DHT22;904;47.814;11.134;2023-06-24T00:10:11;19.50;61.80
1812;DHT22;904;47.814;11.134;2023-06-24T00:12:38;19.50;61.50
1812;DHT22;904;47.814;11.134;2023-06-24T00:15:07;19.50;61.60
1812;DHT22;904;47.814;11.134;2023-06-24T00:17:36;19.50;61.50
1812;DHT22;904;47.814;11.134;2023-06-24T00:20:03;19.50;60.00
1812;DHT22;904;47.814;11.134;2023-06-24T00:22:34;19.50;60.80
1812;DHT22;904;47.814;11.134;2023-06-24T00:25:06;19.50;60.70
1812;DHT22;904;47.814;11.134;2023-06-24T00:27:33;19.50;60.20
1812;DHT22;904;47.814;11.134;2023-06-24T00:30:01;19.50;60.80
1812;DHT22;904;47.814;11.134;2023-06-24T00:32:29;19.40;61.10
1812;DHT22;904;47.814;11.134;2023-06-24T00:34:56;19.50;62.30
1812;DHT22;904;47.814;11.134;2023-06-24T00:37:25;19.40;63.70
1812;DHT22;904;47.814;11.134;2023-06-24T00:39:54;19.40;64.20
1812;DHT22;904;47.814;11.134;2023-06-24T00:42:21;19.30;64.80
1812;DHT22;904;47.814;11.134;2023-06-24T00:44:52;19.30;64.30
1812;DHT22;904;47.814;11.134;2023-06-24T00:47:25;19.20;63.90
1812;DHT22;904;47.814;11.134;2023-06-24T00:49:52;19.00;65.20
1812;DHT22;904;47.814;11.134;2023-06-24T00:52:19;18.80;66.30
1812;DHT22;904;47.814;11.134;2023-06-24T00:54:46;18.60;68.10
1812;DHT22;904;47.814;11.134;2023-06-24T00:57:15;18.60;68.30
1812;DHT22;904;47.814;11.134;2023-06-24T00:59:44;18.50;70.20
1812;DHT22;904;47.814;11.134;2023-06-24T01:02:12;18.50;71.10
1812;DHT22;904;47.814;11.134;2023-06-24T01:04:41;18.50;71.50
1812;DHT22;904;47.814;11.134;2023-06-24T01:07:09;18.40;70.90
1812;DHT22;904;47.814;11.134;2023-06-24T01:09:37;18.30;71.70
1812;DHT22;904;47.814;11.134;2023-06-24T01:12:05;18.30;72.70
1812;DHT22;904;47.814;11.134;2023-06-24T01:14:34;18.20;73.30
1812;DHT22;904;47.814;11.134;2023-06-24T01:17:05;18.10;73.60
1812;DHT22;904;47.814;11.134;2023-06-24T01:19:54;18.00;74.70
1812;DHT22;904;47.814;11.134;2023-06-24T01:22:46;18.00;75.40
1812;DHT22;904;47.814;11.134;2023-06-24T01:25:31;18.00;75.40
1812;DHT22;904;47.814;11.134;2023-06-24T01:28:18;18.00;75.40
1812;DHT22;904;47.814;11.134;2023-06-24T01:31:00;17.80;75.70
1812;DHT22;904;47.814;11.134;2023-06-24T01:33:41;17.80;76.50
1812;DHT22;904;47.814;11.134;2023-06-24T01:36:11;17.70;76.50
1812;DHT22;904;47.814;11.134;2023-06-24T01:38:44;17.70;76.80
1812;DHT22;904;47.814;11.134;2023-06-24T01:41:14;17.80;76.50
1812;DHT22;904;47.814;11.134;2023-06-24T01:43:48;17.80;76.60
1812;DHT22;904;47.814;11.134;2023-06-24T01:46:20;17.80;77.40
1812;DHT22;904;47.814;11.134;2023-06-24T01:48:50;17.90;76.20
1812;DHT22;904;47.814;11.134;2023-06-24T01:51:24;17.80;76.80
1812;DHT22;904;47.814;11.134;2023-06-24T01:54:00;17.90;76.40
1812;DHT22;904;47.814;11.134;2023-06-24T01:56:29;17.90;76.10
1812;DHT22;904;47.814;11.134;2023-06-24T01:59:00;17.90;76.70
1812;DHT22;904;47.814;11.134;2023-06-24T02:01:28;17.90;76.30
1812;DHT22;904;47.814;11.134;2023-06-24T02:03:59;17.80;76.70
1812;DHT22;904;47.814;11.134;2023-06-24T02:06:28;17.80;77.10
1812;DHT22;904;47.814;11.134;2023-06-24T02:08:57;17.80;77.10
1812;DHT22;904;47.814;11.134;2023-06-24T02:11:30;17.80;77.50
1812;DHT22;904;47.814;11.134;2023-06-24T02:13:59;17.80;78.50
1812;DHT22;904;47.814;11.134;2023-06-24T02:16:29;17.80;77.50
1812;DHT22;904;47.814;11.134;2023-06-24T02:18:58;17.90;77.70
1812;DHT22;904;47.814;11.134;2023-06-24T02:21:28;17.90;78.00
1812;DHT22;904;47.814;11.134;2023-06-24T02:24:00;17.90;78.20
1812;DHT22;904;47.814;11.134;2023-06-24T02:26:28;18.00;78.30
1812;DHT22;904;47.814;11.134;2023-06-24T02:28:56;18.00;78.20
1812;DHT22;904;47.814;11.134;2023-06-24T02:31:24;18.00;78.30
1812;DHT22;904;47.814;11.134;2023-06-24T02:33:51;18.00;78.90
1812;DHT22;904;47.814;11.134;2023-06-24T02:36:20;18.00;78.70
1812;DHT22;904;47.814;11.134;2023-06-24T02:38:52;18.00;78.60
1812;DHT22;904;47.814;11.134;2023-06-24T02:41:19;18.00;78.70
1812;DHT22;904;47.814;11.134;2023-06-24T02:43:50;18.10;79.00
1812;DHT22;904;47.814;11.134;2023-06-24T02:46:18;18.00;79.50
1812;DHT22;904;47.814;11.134;2023-06-24T02:48:46;18.00;79.50
1812;DHT22;904;47.814;11.134;2023-06-24T02:51:15;18.10;79.00
1812;DHT22;904;47.814;11.134;2023-06-24T02:53:45;18.10;78.50
1812;DHT22;904;47.814;11.134;2023-06-24T02:56:13;18.10;79.40
1812;DHT22;904;47.814;11.134;2023-06-24T02:58:47;18.10;80.00
1812;DHT22;904;47.814;11.134;2023-06-24T03:01:19;18.10;80.40
1812;DHT22;904;47.814;11.134;2023-06-24T03:03:51;18.20;80.40
1812;DHT22;904;47.814;11.134;2023-06-24T03:06:23;18.20;79.80
1812;DHT22;904;47.814;11.134;2023-06-24T03:08:58;18.20;78.80
1812;DHT22;904;47.814;11.134;2023-06-24T03:11:26;18.10;78.40
1812;DHT22;904;47.814;11.134;2023-06-24T03:13:54;18.10;78.90
1812;DHT22;904;47.814;11.134;2023-06-24T03:16:21;18.20;79.60
1812;DHT22;904;47.814;11.134;2023-06-24T03:18:48;18.10;80.10
1812;DHT22;904;47.814;11.134;2023-06-24T03:21:17;18.20;80.40
1812;DHT22;904;47.814;11.134;2023-06-24T03:23:44;18.20;80.50
1812;DHT22;904;47.814;11.134;2023-06-24T03:26:12;18.20;80.20
1812;DHT22;904;47.814;11.134;2023-06-24T03:28:39;18.20;79.80
1812;DHT22;904;47.814;11.134;2023-06-24T03:31:10;18.20;79.80
1812;DHT22;904;47.814;11.134;2023-06-24T03:33:45;18.20;79.60
1812;DHT22;904;47.814;11.134;2023-06-24T03:36:21;18.20;79.50
1812;DHT22;904;47.814;11.134;2023-06-24T03:38:50;18.20;79.70
1812;DHT22;904;47.814;11.134;2023-06-24T03:41:22;18.20;79.90
1812;DHT22;904;47.814;11.134;2023-06-24T03:43:50;18.10;79.00
1812;DHT22;904;47.814;11.134;2023-06-24T03:46:18;18.20;78.60
1812;DHT22;904;47.814;11.134;2023-06-24T03:48:47;18.10;78.80
1812;DHT22;904;47.814;11.134;2023-06-24T03:51:14;18.10;79.80
1812;DHT22;904;47.814;11.134;2023-06-24T03:53:43;18.10;79.50
1812;DHT22;904;47.814;11.134;2023-06-24T03:56:10;18.10;79.40
1812;DHT22;904;47.814;11.134;2023-06-24T03:58:42;18.00;79.60
1812;DHT22;904;47.814;11.134;2023-06-24T04:01:09;18.00;79.80
1812;DHT22;904;47.814;11.134;2023-06-24T04:03:38;18.00;80.20
1812;DHT22;904;47.814;11.134;2023-06-24T04:06:05;18.00;79.70
1812;DHT22;904;47.814;11.134;2023-06-24T04:08:37;17.90;79.90
1812;DHT22;904;47.814;11.134;2023-06-24T04:11:05;17.80;80.10
1812;DHT22;904;47.814;11.134;2023-06-24T04:13:33;17.80;80.80
1812;DHT22;904;47.814;11.134;2023-06-24T04:16:10;17.90;80.50
1812;DHT22;904;47.814;11.134;2023-06-24T04:18:37;18.00;80.20
1812;DHT22;904;47.814;11.134;2023-06-24T04:21:05;18.00;80.50
1812;DHT22;904;47.814;11.134;2023-06-24T04:23:33;18.00;81.30
1812;DHT22;904;47.814;11.134;2023-06-24T04:26:02;18.00;80.20
1812;DHT22;904;47.814;11.134;2023-06-24T04:28:29;18.00;80.50
1812;DHT22;904;47.814;11.134;2023-06-24T04:30:56;18.10;79.90
1812;DHT22;904;47.814;11.134;2023-06-24T04:33:24;18.10;80.10
1812;DHT22;904;47.814;11.134;2023-06-24T04:35:52;18.10;80.80
1812;DHT22;904;47.814;11.134;2023-06-24T04:38:19;18.10;80.90
1812;DHT22;904;47.814;11.134;2023-06-24T04:40:53;18.10;81.10
1812;DHT22;904;47.814;11.134;2023-06-24T04:43:25;18.10;80.90
1812;DHT22;904;47.814;11.134;2023-06-24T04:45:55;18.10;81.20
1812;DHT22;904;47.814;11.134;2023-06-24T04:48:24;18.10;81.10
1812;DHT22;904;47.814;11.134;2023-06-24T04:50:53;18.10;80.80
1812;DHT22;904;47.814;11.134;2023-06-24T04:53:24;18.20;80.80
1812;DHT22;904;47.814;11.134;2023-06-24T04:55:53;18.10;80.40
1812;DHT22;904;47.814;11.134;2023-06-24T04:58:25;18.10;80.80
1812;DHT22;904;47.814;11.134;2023-06-24T05:00:52;18.20;80.30
1812;DHT22;904;47.814;11.134;2023-06-24T05:03:20;18.20;80.20
1812;DHT22;904;47.814;11.134;2023-06-24T05:05:48;18.30;80.00
1812;DHT22;904;47.814;11.134;2023-06-24T05:08:15;18.30;80.30
1812;DHT22;904;47.814;11.134;2023-06-24T05:10:42;18.30;79.90
1812;DHT22;904;47.814;11.134;2023-06-24T05:13:09;18.30;80.00
1812;DHT22;904;47.814;11.134;2023-06-24T05:15:36;18.40;80.30
1812;DHT22;904;47.814;11.134;2023-06-24T05:18:03;18.50;80.10
1812;DHT22;904;47.814;11.134;2023-06-24T05:20:30;18.60;80.00
1812;DHT22;904;47.814;11.134;2023-06-24T05:22:59;18.60;79.60
1812;DHT22;904;47.814;11.134;2023-06-24T05:25:26;18.60;78.80
1812;DHT22;904;47.814;11.134;2023-06-24T05:27:53;18.60;77.80
1812;DHT22;904;47.814;11.134;2023-06-24T05:30:20;18.60;78.20
1812;DHT22;904;47.814;11.134;2023-06-24T05:32:47;18.70;78.70
1812;DHT22;904;47.814;11.134;2023-06-24T05:35:14;18.80;78.40
1812;DHT22;904;47.814;11.134;2023-06-24T05:37:41;18.90;78.10
1812;DHT22;904;47.814;11.134;2023-06-24T05:40:10;19.00;77.50
1812;DHT22;904;47.814;11.134;2023-06-24T05:42:38;19.00;77.30
1812;DHT22;904;47.814;11.134;2023-06-24T05:45:06;19.10;77.50
1812;DHT22;904;47.814;11.134;2023-06-24T05:47:33;19.20;75.20
1812;DHT22;904;47.814;11.134;2023-06-24T05:50:04;19.00;75.20
1812;DHT22;904;47.814;11.134;2023-06-24T05:52:46;19.00;75.30
1812;DHT22;904;47.814;11.134;2023-06-24T05:55:41;19.00;75.70
1812;DHT22;904;47.814;11.134;2023-06-24T05:58:35;19.10;74.90
1812;DHT22;904;47.814;11.134;2023-06-24T06:01:17;19.00;75.00
1812;DHT22;904;47.814;11.134;2023-06-24T06:03:44;19.00;75.10
1812;DHT22;904;47.814;11.134;2023-06-24T06:06:17;19.10;75.80
1812;DHT22;904;47.814;11.134;2023-06-24T06:08:49;19.20;75.70
1812;DHT22;904;47.814;11.134;2023-06-24T06:11:19;19.30;75.20
1812;DHT22;904;47.814;11.134;2023-06-24T06:13:46;19.40;75.80
1812;DHT22;904;47.814;11.134;2023-06-24T06:16:16;19.50;75.30
1812;DHT22;904;47.814;11.134;2023-06-24T06:18:59;19.50;72.70
1812;DHT22;904;47.814;11.134;2023-06-24T06:21:33;19.50;73.00
1812;DHT22;904;47.814;11.134;2023-06-24T06:24:05;19.50;73.90
1812;DHT22;904;47.814;11.134;2023-06-24T06:26:45;19.50;72.90
1812;DHT22;904;47.814;11.134;2023-06-24T06:29:26;19.50;73.60
1812;DHT22;904;47.814;11.134;2023-06-24T06:32:01;19.60;73.80
1812;DHT22;904;47.814;11.134;2023-06-24T06:34:33;19.70;74.30
1812;DHT22;904;47.814;11.134;2023-06-24T06:37:06;19.70;73.60
1812;DHT22;904;47.814;11.134;2023-06-24T06:39:34;19.80;73.50
1812;DHT22;904;47.814;11.134;2023-06-24T06:42:03;20.00;73.10
1812;DHT22;904;47.814;11.134;2023-06-24T06:44:30;20.10;73.50
1812;DHT22;904;47.814;11.134;2023-06-24T06:47:02;20.20;73.90
1812;DHT22;904;47.814;11.134;2023-06-24T06:49:29;20.30;73.60
1812;DHT22;904;47.814;11.134;2023-06-24T06:51:56;20.50;71.50
1812;DHT22;904;47.814;11.134;2023-06-24T06:54:25;20.60;70.30
1812;DHT22;904;47.814;11.134;2023-06-24T06:57:00;20.70;69.70
1812;DHT22;904;47.814;11.134;2023-06-24T06:59:29;20.70;69.50
1812;DHT22;904;47.814;11.134;2023-06-24T07:02:01;20.90;69.60
1812;DHT22;904;47.814;11.134;2023-06-24T07:04:28;20.90;69.00
1812;DHT22;904;47.814;11.134;2023-06-24T07:06:58;21.00;69.60
1812;DHT22;904;47.814;11.134;2023-06-24T07:09:25;21.10;69.40
1812;DHT22;904;47.814;11.134;2023-06-24T07:11:52;21.20;68.60
1812;DHT22;904;47.814;11.134;2023-06-24T07:14:19;21.20;67.40
1812;DHT22;904;47.814;11.134;2023-06-24T07:16:48;21.30;67.50
1812;DHT22;904;47.814;11.134;2023-06-24T07:19:15;21.30;64.60
1812;DHT22;904;47.814;11.134;2023-06-24T07:21:42;21.30;63.20
1812;DHT22;904;47.814;11.134;2023-06-24T07:24:09;21.30;63.90
1812;DHT22;904;47.814;11.134;2023-06-24T07:26:36;21.40;64.70
1812;DHT22;904;47.814;11.134;2023-06-24T07:29:06;21.40;66.50
1812;DHT22;904;47.814;11.134;2023-06-24T07:31:33;21.40;66.50
1812;DHT22;904;47.814;11.134;2023-06-24T07:34:02;21.50;66.40
1812;DHT22;904;47.814;11.134;2023-06-24T07:36:29;21.50;66.70
1812;DHT22;904;47.814;11.134;2023-06-24T07:38:56;21.60;66.90
1812;DHT22;904;47.814;11.134;2023-06-24T07:41:23;21.70;67.00
1812;DHT22;904;47.814;11.134;2023-06-24T07:43:55;21.70;66.60
1812;DHT22;904;47.814;11.134;2023-06-24T07:46:22;21.80;65.70
1812;DHT22;904;47.814;11.134;2023-06-24T07:48:49;21.90;66.40
1812;DHT22;904;47.814;11.134;2023-06-24T07:51:17;22.00;65.80
1812;DHT22;904;47.814;11.134;2023-06-24T07:53:44;22.00;64.90
1812;DHT22;904;47.814;11.134;2023-06-24T07:56:16;22.10;64.20
1812;DHT22;904;47.814;11.134;2023-06-24T07:58:43;22.20;63.10
1812;DHT22;904;47.814;11.134;2023-06-24T08:01:10;22.20;61.10
1812;DHT22;904;47.814;11.134;2023-06-24T08:03:37;22.20;61.50
1812;DHT22;904;47.814;11.134;2023-06-24T08:06:06;22.30;61.20
1812;DHT22;904;47.814;11.134;2023-06-24T08:08:35;22.40;60.30
1812;DHT22;904;47.814;11.134;2023-06-24T08:11:02;22.50;59.60
1812;DHT22;904;47.814;11.134;2023-06-24T08:13:31;22.60;59.60
1812;DHT22;904;47.814;11.134;2023-06-24T08:16:01;22.80;59.10
1812;DHT22;904;47.814;11.134;2023-06-24T08:18:28;23.00;58.80
1812;DHT22;904;47.814;11.134;2023-06-24T08:20:55;23.10;55.80
1812;DHT22;904;47.814;11.134;2023-06-24T08:23:22;23.30;55.00
1812;DHT22;904;47.814;11.134;2023-06-24T08:25:51;23.40;54.00
1812;DHT22;904;47.814;11.134;2023-06-24T08:28:18;23.50;53.10
1812;DHT22;904;47.814;11.134;2023-06-24T08:30:45;23.60;51.10
1812;DHT22;904;47.814;11.134;2023-06-24T08:33:12;23.70;51.80
1812;DHT22;904;47.814;11.134;2023-06-24T08:35:39;23.80;50.60
1812;DHT22;904;47.814;11.134;2023-06-24T08:38:06;23.90;50.80
1812;DHT22;904;47.814;11.134;2023-06-24T08:40:34;24.10;50.70
1812;DHT22;904;47.814;11.134;2023-06-24T08:43:02;24.20;50.80
1812;DHT22;904;47.814;11.134;2023-06-24T08:45:29;24.40;52.20
1812;DHT22;904;47.814;11.134;2023-06-24T08:47:57;24.70;51.50
1812;DHT22;904;47.814;11.134;2023-06-24T08:50:29;24.90;50.10
1812;DHT22;904;47.814;11.134;2023-06-24T08:52:58;25.10;49.00
1812;DHT22;904;47.814;11.134;2023-06-24T08:55:27;25.30;48.40
1812;DHT22;904;47.814;11.134;2023-06-24T08:57:54;25.40;47.70
1812;DHT22;904;47.814;11.134;2023-06-24T09:00:23;25.60;48.30
1812;DHT22;904;47.814;11.134;2023-06-24T09:02:52;25.60;46.00
1812;DHT22;904;47.814;11.134;2023-06-24T09:05:21;25.70;46.30
1812;DHT22;904;47.814;11.134;2023-06-24T09:07:49;25.70;44.90
1812;DHT22;904;47.814;11.134;2023-06-24T09:10:29;25.80;44.50
1812;DHT22;904;47.814;11.134;2023-06-24T09:12:57;25.80;45.70
1812;DHT22;904;47.814;11.134;2023-06-24T09:15:29;25.90;43.20
1812;DHT22;904;47.814;11.134;2023-06-24T09:17:57;25.90;43.50
1812;DHT22;904;47.814;11.134;2023-06-24T09:20:29;25.90;44.30
1812;DHT22;904;47.814;11.134;2023-06-24T09:23:01;25.90;44.40
1812;DHT22;904;47.814;11.134;2023-06-24T09:25:29;25.90;43.90
1812;DHT22;904;47.814;11.134;2023-06-24T09:27:58;26.00;43.80
1812;DHT22;904;47.814;11.134;2023-06-24T09:30:33;26.10;43.00
1812;DHT22;904;47.814;11.134;2023-06-24T09:32:59;26.20;42.30
1812;DHT22;904;47.814;11.134;2023-06-24T09:35:26;26.20;41.60
1812;DHT22;904;47.814;11.134;2023-06-24T09:37:55;26.10;41.70
1812;DHT22;904;47.814;11.134;2023-06-24T09:40:25;26.10;42.00
1812;DHT22;904;47.814;11.134;2023-06-24T09:42:53;26.10;41.90
1812;DHT22;904;47.814;11.134;2023-06-24T09:45:22;26.10;41.90
1812;DHT22;904;47.814;11.134;2023-06-24T09:47:51;26.20;42.10
1812;DHT22;904;47.814;11.134;2023-06-24T09:50:18;26.30;40.00
1812;DHT22;904;47.814;11.134;2023-06-24T09:52:46;26.30;39.90
1812;DHT22;904;47.814;11.134;2023-06-24T09:55:17;26.30;40.90
1812;DHT22;904;47.814;11.134;2023-06-24T09:57:46;26.30;42.20
1812;DHT22;904;47.814;11.134;2023-06-24T10:00:15;26.40;40.40
1812;DHT22;904;47.814;11.134;2023-06-24T10:02:43;26.40;40.90
1812;DHT22;904;47.814;11.134;2023-06-24T10:05:13;26.40;39.60
1812;DHT22;904;47.814;11.134;2023-06-24T10:07:40;26.40;40.60
1812;DHT22;904;47.814;11.134;2023-06-24T10:10:08;26.50;41.70
1812;DHT22;904;47.814;11.134;2023-06-24T10:12:36;26.60;39.50
1812;DHT22;904;47.814;11.134;2023-06-24T10:15:04;26.70;38.60
1812;DHT22;904;47.814;11.134;2023-06-24T10:17:31;26.70;39.00
1812;DHT22;904;47.814;11.134;2023-06-24T10:19:58;26.70;40.20
1812;DHT22;904;47.814;11.134;2023-06-24T10:22:31;26.80;40.70
1812;DHT22;904;47.814;11.134;2023-06-24T10:25:05;26.90;41.00
1812;DHT22;904;47.814;11.134;2023-06-24T10:27:38;27.00;40.60
1812;DHT22;904;47.814;11.134;2023-06-24T10:30:17;27.20;39.90
1812;DHT22;904;47.814;11.134;2023-06-24T10:32:45;27.30;40.30
1812;DHT22;904;47.814;11.134;2023-06-24T10:35:22;27.40;39.70
1812;DHT22;904;47.814;11.134;2023-06-24T10:37:57;27.50;37.70
1812;DHT22;904;47.814;11.134;2023-06-24T10:40:45;27.40;38.00
1812;DHT22;904;47.814;11.134;2023-06-24T10:43:28;27.40;38.00
1812;DHT22;904;47.814;11.134;2023-06-24T10:45:59;27.30;38.30
1812;DHT22;904;47.814;11.134;2023-06-24T10:48:27;27.30;37.60
1812;DHT22;904;47.814;11.134;2023-06-24T10:50:54;27.20;37.70
1812;DHT22;904;47.814;11.134;2023-06-24T10:53:23;27.10;38.40
1812;DHT22;904;47.814;11.134;2023-06-24T10:55:50;27.00;39.50
1812;DHT22;904;47.814;11.134;2023-06-24T10:58:17;26.90;39.20
1812;DHT22;904;47.814;11.134;2023-06-24T11:00:44;26.80;38.50
1812;DHT22;904;47.814;11.134;2023-06-24T11:03:13;26.80;39.10
1812;DHT22;904;47.814;11.134;2023-06-24T11:05:41;26.90;39.40
1812;DHT22;904;47.814;11.134;2023-06-24T11:08:08;27.00;39.90
1812;DHT22;904;47.814;11.134;2023-06-24T11:10:44;27.20;38.90
1812;DHT22;904;47.814;11.134;2023-06-24T11:13:11;27.30;37.20
1812;DHT22;904;47.814;11.134;2023-06-24T11:15:38;27.40;36.80
1812;DHT22;904;47.814;11.134;2023-06-24T11:18:08;27.60;37.10
1812;DHT22;904;47.814;11.134;2023-06-24T11:20:36;27.70;36.50
1812;DHT22;904;47.814;11.134;2023-06-24T11:23:07;27.70;35.40
1812;DHT22;904;47.814;11.134;2023-06-24T11:25:39;27.80;35.70
1812;DHT22;904;47.814;11.134;2023-06-24T11:28:14;27.90;35.30
1812;DHT22;904;47.814;11.134;2023-06-24T11:30:41;27.90;36.00
1812;DHT22;904;47.814;11.134;2023-06-24T11:33:08;28.00;35.90
1812;DHT22;904;47.814;11.134;2023-06-24T11:35:35;28.00;34.90
1812;DHT22;904;47.814;11.134;2023-06-24T11:38:02;28.10;34.80
1812;DHT22;904;47.814;11.134;2023-06-24T11:40:31;28.00;34.90
1812;DHT22;904;47.814;11.134;2023-06-24T11:43:00;27.80;33.50
1812;DHT22;904;47.814;11.134;2023-06-24T11:45:29;27.60;33.60
1812;DHT22;904;47.814;11.134;2023-06-24T11:48:02;27.50;34.20
1812;DHT22;904;47.814;11.134;2023-06-24T11:50:36;27.40;34.10
1812;DHT22;904;47.814;11.134;2023-06-24T11:53:03;27.40;33.30
1812;DHT22;904;47.814;11.134;2023-06-24T11:55:31;27.30;34.70
1812;DHT22;904;47.814;11.134;2023-06-24T11:57:59;27.30;34.20
1812;DHT22;904;47.814;11.134;2023-06-24T12:00:31;27.20;33.90
1812;DHT22;904;47.814;11.134;2023-06-24T12:02:59;27.00;33.80
1812;DHT22;904;47.814;11.134;2023-06-24T12:05:28;26.90;33.70
1812;DHT22;904;47.814;11.134;2023-06-24T12:07:59;26.90;34.60
1812;DHT22;904;47.814;11.134;2023-06-24T12:10:27;26.80;35.10
1812;DHT22;904;47.814;11.134;2023-06-24T12:12:56;26.80;35.30
1812;DHT22;904;47.814;11.134;2023-06-24T12:15:23;26.80;34.70
1812;DHT22;904;47.814;11.134;2023-06-24T12:17:52;26.80;35.20
1812;DHT22;904;47.814;11.134;2023-06-24T12:20:19;27.00;34.70
1812;DHT22;904;47.814;11.134;2023-06-24T12:22:47;27.00;34.50
1812;DHT22;904;47.814;11.134;2023-06-24T12:25:15;27.00;34.00
1812;DHT22;904;47.814;11.134;2023-06-24T12:27:42;27.10;34.20
1812;DHT22;904;47.814;11.134;2023-06-24T12:30:10;27.10;34.70
1812;DHT22;904;47.814;11.134;2023-06-24T12:32:38;27.10;34.80
1812;DHT22;904;47.814;11.134;2023-06-24T12:35:07;27.10;34.10
1812;DHT22;904;47.814;11.134;2023-06-24T12:37:35;26.90;33.10
1812;DHT22;904;47.814;11.134;2023-06-24T12:40:03;26.80;33.60
1812;DHT22;904;47.814;11.134;2023-06-24T12:42:30;26.80;34.80
1812;DHT22;904;47.814;11.134;2023-06-24T12:44:57;26.80;34.50
1812;DHT22;904;47.814;11.134;2023-06-24T12:47:24;26.80;34.30
1812;DHT22;904;47.814;11.134;2023-06-24T12:49:51;26.80;34.80
1812;DHT22;904;47.814;11.134;2023-06-24T12:52:20;26.80;34.00
1812;DHT22;904;47.814;11.134;2023-06-24T12:54:47;26.80;33.80
1812;DHT22;904;47.814;11.134;2023-06-24T12:57:14;26.80;34.30
1812;DHT22;904;47.814;11.134;2023-06-24T12:59:41;26.80;34.90
1812;DHT22;904;47.814;11.134;2023-06-24T13:02:08;26.90;34.20
1812;DHT22;904;47.814;11.134;2023-06-24T13:04:35;27.00;35.30
1812;DHT22;904;47.814;11.134;2023-06-24T13:07:02;27.20;35.10
1812;DHT22;904;47.814;11.134;2023-06-24T13:09:31;27.30;34.60
1812;DHT22;904;47.814;11.134;2023-06-24T13:11:58;27.40;33.20
1812;DHT22;904;47.814;11.134;2023-06-24T13:14:25;27.50;32.50
1812;DHT22;904;47.814;11.134;2023-06-24T13:16:54;27.60;32.30
1812;DHT22;904;47.814;11.134;2023-06-24T13:19:21;27.70;33.20
1812;DHT22;904;47.814;11.134;2023-06-24T13:21:48;27.70;32.60
1812;DHT22;904;47.814;11.134;2023-06-24T13:24:14;27.60;31.50
1812;DHT22;904;47.814;11.134;2023-06-24T13:26:43;27.60;32.10
1812;DHT22;904;47.814;11.134;2023-06-24T13:29:11;27.40;31.30
1812;DHT22;904;47.814;11.134;2023-06-24T13:31:38;27.30;31.00
1812;DHT22;904;47.814;11.134;2023-06-24T13:34:06;27.20;31.80
1812;DHT22;904;47.814;11.134;2023-06-24T13:36:34;27.20;32.40
1812;DHT22;904;47.814;11.134;2023-06-24T13:39:02;27.20;33.00
1812;DHT22;904;47.814;11.134;2023-06-24T13:41:29;27.30;32.80
1812;DHT22;904;47.814;11.134;2023-06-24T13:44:00;27.40;33.00
1812;DHT22;904;47.814;11.134;2023-06-24T13:46:27;27.50;33.40
1812;DHT22;904;47.814;11.134;2023-06-24T13:48:54;27.60;32.40
1812;DHT22;904;47.814;11.134;2023-06-24T13:51:22;27.60;32.50
1812;DHT22;904;47.814;11.134;2023-06-24T13:53:50;27.70;33.60
1812;DHT22;904;47.814;11.134;2023-06-24T13:56:18;27.80;34.80
1812;DHT22;904;47.814;11.134;2023-06-24T13:58:45;27.80;35.00
1812;DHT22;904;47.814;11.134;2023-06-24T14:01:14;27.90;34.90
1812;DHT22;904;47.814;11.134;2023-06-24T14:03:41;27.80;32.10
1812;DHT22;904;47.814;11.134;2023-06-24T14:06:08;27.80;32.70
1812;DHT22;904;47.814;11.134;2023-06-24T14:08:35;27.80;32.50
1812;DHT22;904;47.814;11.134;2023-06-24T14:11:04;27.80;32.50
1812;DHT22;904;47.814;11.134;2023-06-24T14:13:31;27.80;32.80
1812;DHT22;904;47.814;11.134;2023-06-24T14:15:58;27.80;32.50
1812;DHT22;904;47.814;11.134;2023-06-24T14:18:27;27.80;31.50
1812;DHT22;904;47.814;11.134;2023-06-24T14:20:57;27.80;31.90
1812;DHT22;904;47.814;11.134;2023-06-24T14:23:24;27.80;31.50
1812;DHT22;904;47.814;11.134;2023-06-24T14:25:51;27.80;31.00
1812;DHT22;904;47.814;11.134;2023-06-24T14:28:18;27.90;32.50
1812;DHT22;904;47.814;11.134;2023-06-24T14:30:45;27.80;32.00
1812;DHT22;904;47.814;11.134;2023-06-24T14:33:12;27.80;31.10
1812;DHT22;904;47.814;11.134;2023-06-24T14:35:41;27.70;31.90
1812;DHT22;904;47.814;11.134;2023-06-24T14:38:08;27.60;32.10
1812;DHT22;904;47.814;11.134;2023-06-24T14:40:35;27.40;32.20
1812;DHT22;904;47.814;11.134;2023-06-24T14:43:02;27.40;32.20
1812;DHT22;904;47.814;11.134;2023-06-24T14:45:29;27.30;31.70
1812;DHT22;904;47.814;11.134;2023-06-24T14:47:56;27.20;32.40
1812;DHT22;904;47.814;11.134;2023-06-24T14:50:23;27.00;32.00
1812;DHT22;904;47.814;11.134;2023-06-24T14:52:52;26.90;31.50
1812;DHT22;904;47.814;11.134;2023-06-24T14:55:19;26.70;31.30
1812;DHT22;904;47.814;11.134;2023-06-24T14:57:46;26.60;30.90
1812;DHT22;904;47.814;11.134;2023-06-24T15:00:13;26.50;32.20
1812;DHT22;904;47.814;11.134;2023-06-24T15:02:40;26.40;33.50
1812;DHT22;904;47.814;11.134;2023-06-24T15:05:07;26.50;34.30
1812;DHT22;904;47.814;11.134;2023-06-24T15:07:35;26.50;33.70
1812;DHT22;904;47.814;11.134;2023-06-24T15:10:06;26.40;33.60
1812;DHT22;904;47.814;11.134;2023-06-24T15:12:33;26.40;33.10
1812;DHT22;904;47.814;11.134;2023-06-24T15:15:00;26.40;33.00
1812;DHT22;904;47.814;11.134;2023-06-24T15:17:27;26.40;33.30
1812;DHT22;904;47.814;11.134;2023-06-24T15:19:55;26.40;33.00
1812;DHT22;904;47.814;11.134;2023-06-24T15:22:22;26.40;34.30
1812;DHT22;904;47.814;11.134;2023-06-24T15:24:49;26.30;34.80
1812;DHT22;904;47.814;11.134;2023-06-24T15:27:18;26.30;34.50
1812;DHT22;904;47.814;11.134;2023-06-24T15:29:44;26.20;34.60
1812;DHT22;904;47.814;11.134;2023-06-24T15:32:11;26.20;35.00
1812;DHT22;904;47.814;11.134;2023-06-24T15:34:38;26.20;35.30
1812;DHT22;904;47.814;11.134;2023-06-24T15:37:06;26.20;34.40
1812;DHT22;904;47.814;11.134;2023-06-24T15:39:33;26.10;35.00
1812;DHT22;904;47.814;11.134;2023-06-24T15:42:00;26.10;34.70
1812;DHT22;904;47.814;11.134;2023-06-24T15:44:33;26.00;34.80
1812;DHT22;904;47.814;11.134;2023-06-24T15:47:00;25.90;35.40
1812;DHT22;904;47.814;11.134;2023-06-24T15:49:27;25.80;35.30
1812;DHT22;904;47.814;11.134;2023-06-24T15:51:59;25.70;35.10
1812;DHT22;904;47.814;11.134;2023-06-24T15:54:26;25.70;35.70
1812;DHT22;904;47.814;11.134;2023-06-24T15:56:53;25.60;36.00
1812;DHT22;904;47.814;11.134;2023-06-24T15:59:20;25.50;35.60
1812;DHT22;904;47.814;11.134;2023-06-24T16:01:48;25.40;36.20
1812;DHT22;904;47.814;11.134;2023-06-24T16:04:15;25.40;36.50
1812;DHT22;904;47.814;11.134;2023-06-24T16:06:42;25.30;36.50
1812;DHT22;904;47.814;11.134;2023-06-24T16:09:09;25.30;36.00
1812;DHT22;904;47.814;11.134;2023-06-24T16:11:36;25.20;35.50
1812;DHT22;904;47.814;11.134;2023-06-24T16:14:03;25.20;35.60